Time;durP1;ratioP1;P1;durP2;ratioP2;P2;SDS_P1;SDS_P2;PMS_P1;PMS_P2;Temp;Humidity;BMP_temperature;BMP_pressure;BME280_temperature;BME280_humidity;BME280_pressure;Samples;Min_cycle;Max_cycle;Signal;HPM_P1;HPM_P2
2022/12/05 00:00:32;;;;;;;37.92;18.80;;;;;;;1.82;79.21;98855.91;5049680;28;20055;-80
2022/12/05 00:02:58;;;;;;;40.97;19.08;;;;;;;1.77;79.45;98854.69;5049320;28;20040;-80
2022/12/05 00:05:23;;;;;;;36.28;18.35;;;;;;;1.72;79.71;98843.75;5049185;28;20476;-80
2022/12/05 00:07:48;;;;;;;38.42;18.25;;;;;;;1.67;79.80;98843.59;5049239;28;20051;-81
2022/12/05 00:10:14;;;;;;;37.70;17.85;;;;;;;1.61;80.10;98844.50;5049506;28;20525;-81
2022/12/05 00:12:40;;;;;;;35.55;17.65;;;;;;;1.55;79.58;98837.31;5050050;28;20151;-80
2022/12/05 00:15:08;;;;;;;38.17;17.60;;;;;;;1.52;79.77;98833.19;5048066;28;20071;-81
2022/12/05 00:17:33;;;;;;;38.42;17.17;;;;;;;1.51;79.53;98828.00;5049811;28;20024;-81
2022/12/05 00:19:59;;;;;;;35.58;16.58;;;;;;;1.49;79.49;98828.22;5048007;28;20376;-81
2022/12/05 00:22:25;;;;;;;40.83;18.85;;;;;;;1.45;79.70;98830.56;5048214;28;20465;-80
2022/12/05 00:24:51;;;;;;;39.83;18.17;;;;;;;1.45;80.12;98821.63;5049102;28;20112;-80
2022/12/05 00:27:16;;;;;;;40.20;18.70;;;;;;;1.45;79.65;98819.75;5049418;28;20099;-80
2022/12/05 00:29:41;;;;;;;39.33;18.08;;;;;;;1.46;79.45;98825.97;5048878;28;20025;-81
2022/12/05 00:32:07;;;;;;;41.53;18.38;;;;;;;1.47;79.56;98827.63;5048028;28;20037;-80
2022/12/05 00:34:32;;;;;;;40.80;18.13;;;;;;;1.51;79.91;98833.41;5048878;28;20029;-80
2022/12/05 00:36:57;;;;;;;37.17;17.63;;;;;;;1.53;80.27;98828.59;5049059;28;20029;-81
2022/12/05 00:39:23;;;;;;;39.65;18.25;;;;;;;1.55;80.26;98832.72;5050060;28;20453;-77
2022/12/05 00:41:48;;;;;;;37.33;18.70;;;;;;;1.57;80.47;98827.94;5052785;28;20067;-78
2022/12/05 00:44:14;;;;;;;40.72;18.88;;;;;;;1.55;79.75;98827.31;5051778;28;20586;-78
2022/12/05 00:46:39;;;;;;;38.30;17.80;;;;;;;1.55;79.57;98821.91;5052580;28;20121;-78
2022/12/05 00:49:06;;;;;;;37.25;18.08;;;;;;;1.56;79.65;98815.47;5052170;28;20013;-79
2022/12/05 00:51:35;;;;;;;38.88;18.13;;;;;;;1.58;79.61;98815.22;5052840;28;20105;-79
2022/12/05 00:54:02;;;;;;;38.55;16.50;;;;;;;1.59;79.89;98815.00;5050673;28;20036;-78
2022/12/05 00:56:29;;;;;;;38.83;18.10;;;;;;;1.59;80.22;98824.97;5052249;28;20021;-79
2022/12/05 00:58:56;;;;;;;36.65;17.13;;;;;;;1.61;79.58;98828.28;5050903;28;20013;-79
2022/12/05 01:01:23;;;;;;;36.08;16.23;;;;;;;1.64;79.40;98827.81;5049264;28;20515;-78
2022/12/05 01:03:51;;;;;;;32.88;16.95;;;;;;;1.63;79.29;98818.88;5052485;28;20025;-78
2022/12/05 01:06:16;;;;;;;36.92;17.27;;;;;;;1.62;79.45;98819.97;5052221;28;20025;-79
2022/12/05 01:08:42;;;;;;;33.65;16.20;;;;;;;1.63;79.78;98818.06;5052331;28;20502;-78
2022/12/05 01:11:09;;;;;;;36.13;17.40;;;;;;;1.66;80.08;98819.47;5052303;28;20427;-78
2022/12/05 01:13:35;;;;;;;35.55;17.48;;;;;;;1.66;79.36;98827.59;5052828;28;20692;-78
2022/12/05 01:16:01;;;;;;;35.47;16.90;;;;;;;1.67;80.17;98832.78;5052206;28;20029;-78
2022/12/05 01:18:28;;;;;;;34.70;16.83;;;;;;;1.69;80.11;98836.09;5052654;28;20028;-77
2022/12/05 01:20:54;;;;;;;36.42;18.20;;;;;;;1.71;79.92;98830.44;5051595;28;20032;-78
2022/12/05 01:23:20;;;;;;;37.97;19.02;;;;;;;1.72;80.08;98826.69;5052703;28;20036;-77
2022/12/05 01:25:47;;;;;;;34.00;17.15;;;;;;;1.73;80.15;98826.47;5052730;28;20381;-77
2022/12/05 01:28:14;;;;;;;36.05;17.60;;;;;;;1.74;79.93;98827.28;5052248;28;20025;-78
2022/12/05 01:30:43;;;;;;;36.50;17.92;;;;;;;1.72;79.88;98818.56;5051845;28;20060;-77
2022/12/05 01:33:09;;;;;;;34.88;17.35;;;;;;;1.73;79.64;98810.22;5052241;28;20563;-77
2022/12/05 01:35:36;;;;;;;41.28;19.13;;;;;;;1.74;79.86;98811.88;5052587;28;20033;-79
2022/12/05 01:38:02;;;;;;;35.58;16.55;;;;;;;1.76;79.81;98815.19;5052000;28;20037;-78
2022/12/05 01:40:28;;;;;;;37.70;17.55;;;;;;;1.76;80.05;98814.34;5052682;28;20370;-78
2022/12/05 01:42:53;;;;;;;38.38;18.58;;;;;;;1.76;79.76;98822.47;5050791;28;20040;-77
2022/12/05 01:45:33;;;;;;;39.25;18.02;;;;;;;1.78;79.86;98823.06;5051072;28;20112;-78
2022/12/05 01:48:02;;;;;;;34.65;16.73;;;;;;;1.80;79.55;98836.38;5050719;28;20056;-78
2022/12/05 01:50:27;;;;;;;34.38;16.58;;;;;;;1.84;79.41;98834.81;5049854;28;20119;-78
2022/12/05 01:52:53;;;;;;;37.65;19.15;;;;;;;1.89;79.50;98840.38;5051762;28;20453;-79
2022/12/05 01:55:18;;;;;;;35.42;16.95;;;;;;;1.90;79.50;98845.56;5051341;28;20036;-77
2022/12/05 01:57:46;;;;;;;37.60;17.42;;;;;;;1.92;79.79;98840.75;5050644;28;20040;-78
2022/12/05 02:00:15;;;;;;;34.83;17.10;;;;;;;1.92;79.29;98831.81;5051172;28;20084;-78
2022/12/05 02:02:45;;;;;;;33.67;15.93;;;;;;;1.92;79.77;98839.91;5049901;28;20104;-77
2022/12/05 02:05:17;;;;;;;37.22;17.33;;;;;;;1.94;79.32;98845.91;5052127;28;20358;-78
2022/12/05 02:07:44;;;;;;;34.15;16.52;;;;;;;1.96;79.66;98841.09;5049233;28;20036;-77
2022/12/05 02:10:09;;;;;;;34.50;16.92;;;;;;;1.94;79.41;98832.41;5051742;28;20112;-78
2022/12/05 02:12:36;;;;;;;33.58;16.75;;;;;;;1.94;79.11;98821.56;5051232;28;20430;-77
2022/12/05 02:15:33;;;;;;;37.63;17.73;;;;;;;1.89;79.51;98822.28;5051157;28;20082;-78
2022/12/05 02:18:15;;;;;;;35.55;17.40;;;;;;;1.85;79.03;98829.19;5049285;28;20303;-77
2022/12/05 02:20:50;;;;;;;38.15;16.73;;;;;;;1.83;79.21;98827.78;5051034;28;20025;-78
2022/12/05 02:23:21;;;;;;;38.05;17.88;;;;;;;1.85;79.72;98831.06;5049794;28;20471;-78
2022/12/05 02:25:50;;;;;;;36.70;17.42;;;;;;;1.88;79.13;98844.13;5047625;28;20033;-78
2022/12/05 02:28:24;;;;;;;35.15;16.63;;;;;;;1.90;79.17;98850.13;5050335;28;20430;-77
2022/12/05 02:30:56;;;;;;;34.22;16.42;;;;;;;1.92;79.18;98845.31;5047490;28;20033;-78
2022/12/05 02:33:37;;;;;;;38.33;17.85;;;;;;;1.97;79.91;98850.88;5049907;28;20021;-78
2022/12/05 02:36:16;;;;;;;38.42;18.30;;;;;;;2.00;79.69;98841.50;5050993;28;20025;-77
2022/12/05 02:39:03;;;;;;;35.28;16.75;;;;;;;2.00;79.94;98841.50;5050485;28;20027;-77
2022/12/05 02:41:41;;;;;;;36.80;17.42;;;;;;;2.02;79.61;98839.38;5048912;28;20052;-78
2022/12/05 02:44:14;;;;;;;37.72;18.00;;;;;;;2.04;79.68;98826.41;5050810;28;20485;-77
2022/12/05 02:46:45;;;;;;;34.53;17.35;;;;;;;2.05;79.32;98825.38;5050221;28;20021;-78
2022/12/05 02:49:15;;;;;;;38.10;18.02;;;;;;;2.03;79.72;98827.50;5049660;28;20489;-77
2022/12/05 02:51:45;;;;;;;37.72;18.00;;;;;;;2.03;79.95;98833.72;5050559;28;20028;-77
2022/12/05 02:54:15;;;;;;;39.20;17.45;;;;;;;2.04;79.57;98829.97;5049439;28;20040;-78
2022/12/05 02:56:43;;;;;;;39.08;18.15;;;;;;;2.05;79.07;98839.72;5050681;28;20033;-78
2022/12/05 02:59:09;;;;;;;44.53;19.95;;;;;;;2.03;79.61;98833.72;5049966;28;20040;-78
2022/12/05 03:01:34;;;;;;;37.55;18.35;;;;;;;2.05;79.30;98828.91;5050813;28;20055;-78
2022/12/05 03:04:02;;;;;;;36.75;16.95;;;;;;;2.05;79.77;98828.91;5048890;28;20025;-78
2022/12/05 03:06:38;;;;;;;39.53;18.38;;;;;;;2.07;79.44;98820.53;5049030;28;20329;-78
2022/12/05 03:09:10;;;;;;;40.95;18.27;;;;;;;2.06;79.13;98814.31;5049951;28;20025;-78
2022/12/05 03:11:49;;;;;;;40.53;18.73;;;;;;;2.06;79.72;98824.31;5050662;28;20033;-78
2022/12/05 03:14:21;;;;;;;40.42;17.83;;;;;;;2.05;79.13;98815.38;5050540;28;20028;-78
2022/12/05 03:16:52;;;;;;;37.72;17.75;;;;;;;2.05;79.16;98807.25;5049799;28;20032;-77
2022/12/05 03:19:29;;;;;;;38.70;18.63;;;;;;;2.03;78.85;98803.97;5049760;28;20059;-78
2022/12/05 03:22:02;;;;;;;37.53;17.05;;;;;;;2.00;79.30;98793.59;5049956;28;20029;-75
2022/12/05 03:24:29;;;;;;;41.53;18.40;;;;;;;1.98;79.27;98778.69;5050067;28;20140;-76
2022/12/05 03:27:16;;;;;;;37.75;18.05;;;;;;;1.91;79.56;98785.00;5049497;28;20029;-77
2022/12/05 03:30:03;;;;;;;37.65;17.05;;;;;;;1.84;79.05;98789.69;5049678;28;20116;-76
2022/12/05 03:32:46;;;;;;;37.63;16.38;;;;;;;1.84;78.92;98780.72;5049753;28;20035;-77
2022/12/05 03:35:29;;;;;;;37.03;17.00;;;;;;;1.81;78.97;98783.94;5050062;28;20485;-77
2022/12/05 03:38:25;;;;;;;34.95;16.15;;;;;;;1.80;79.80;98793.91;5047721;28;20749;-77
2022/12/05 03:41:05;;;;;;;33.70;16.50;;;;;;;1.82;79.67;98794.50;5039888;28;20037;-77
2022/12/05 03:43:47;;;;;;;33.30;16.17;;;;;;;1.82;79.08;98778.28;5049477;28;20051;-77
2022/12/05 03:46:28;;;;;;;38.00;17.42;;;;;;;1.82;78.88;98788.28;5049594;28;20028;-77
2022/12/05 03:49:05;;;;;;;38.65;17.33;;;;;;;1.81;79.70;98790.16;5049438;28;20032;-78
2022/12/05 03:51:37;;;;;;;38.22;17.80;;;;;;;1.78;79.56;98786.03;5049205;28;20628;-78
2022/12/05 03:54:13;;;;;;;36.22;16.63;;;;;;;1.77;79.14;98778.97;5049983;28;20045;-77
2022/12/05 03:56:49;;;;;;;37.15;17.77;;;;;;;1.75;79.23;98772.97;5050083;28;20064;-77
2022/12/05 03:59:27;;;;;;;35.38;16.98;;;;;;;1.72;79.80;98783.41;5049664;28;20036;-78
2022/12/05 04:01:54;;;;;;;38.25;17.70;;;;;;;1.69;79.29;98773.88;5047063;28;20041;-78
2022/12/05 04:04:48;;;;;;;35.03;16.30;;;;;;;1.66;79.08;98781.63;5046604;28;20025;-78
2022/12/05 04:07:16;;;;;;;39.85;18.83;;;;;;;1.67;79.27;98797.63;5046870;28;20028;-77
2022/12/05 04:10:11;;;;;;;37.38;18.10;;;;;;;1.68;79.20;98804.69;5047697;28;20548;-78
2022/12/05 04:12:40;;;;;;;35.28;16.90;;;;;;;1.75;79.15;98807.28;5046825;28;20036;-78
2022/12/05 04:15:10;;;;;;;32.70;15.60;;;;;;;1.76;79.41;98811.63;5047545;28;20040;-78
2022/12/05 04:17:49;;;;;;;36.67;16.48;;;;;;;1.78;79.20;98814.94;5049931;28;20414;-78
2022/12/05 04:23:10;;;;;;;39.78;17.60;;;;;;;1.89;79.80;98813.31;5050078;28;20118;-78
2022/12/05 04:25:48;;;;;;;35.78;17.85;;;;;;;1.89;80.16;98806.06;5050422;28;20071;-78
2022/12/05 04:28:38;;;;;;;37.00;16.73;;;;;;;1.93;79.83;98801.00;5048813;28;20557;-77
2022/12/05 04:31:03;;;;;;;37.72;19.23;;;;;;;1.96;79.94;98802.44;5048454;28;20116;-77
2022/12/05 04:33:53;;;;;;;39.15;17.67;;;;;;;1.94;79.18;98791.81;5048600;28;20127;-78
2022/12/05 04:36:28;;;;;;;34.22;16.80;;;;;;;1.96;79.95;98800.53;5048315;28;20045;-78
2022/12/05 04:38:59;;;;;;;34.42;17.13;;;;;;;1.92;79.21;98802.88;5049535;28;20112;-78
2022/12/05 04:41:33;;;;;;;35.92;17.45;;;;;;;1.90;79.52;98799.59;5049163;28;20541;-78
2022/12/05 04:44:04;;;;;;;32.35;16.33;;;;;;;1.90;79.80;98796.88;5048959;28;20024;-78
2022/12/05 04:46:29;;;;;;;35.72;17.52;;;;;;;1.92;79.49;98797.47;5049119;28;20810;-78
2022/12/05 04:49:00;;;;;;;36.72;16.90;;;;;;;1.98;79.62;98793.00;5049874;28;20029;-79
2022/12/05 04:51:29;;;;;;;38.40;18.55;;;;;;;2.01;79.54;98795.25;5050263;28;20122;-78
2022/12/05 04:54:07;;;;;;;45.22;19.38;;;;;;;2.03;79.28;98790.44;5049619;28;20104;-79
2022/12/05 04:56:37;;;;;;;35.95;17.83;;;;;;;2.05;79.54;98785.63;5049905;28;20032;-78
2022/12/05 04:59:03;;;;;;;;;;;;;;;2.07;79.34;98788.09;5050210;28;20381;-79
2022/12/05 05:01:47;;;;;;;43.13;19.70;;;;;;;2.04;79.28;98781.25;5047369;28;19916;-78
2022/12/05 05:04:20;;;;;;;38.45;17.92;;;;;;;2.00;78.90;98779.28;5048740;28;20084;-78
2022/12/05 05:06:46;;;;;;;37.10;18.65;;;;;;;2.00;78.88;98779.28;5047403;28;20051;-78
2022/12/05 05:09:11;;;;;;;38.58;18.02;;;;;;;1.98;79.04;98779.47;5048636;28;20021;-78
2022/12/05 05:11:37;;;;;;;38.72;17.73;;;;;;;1.99;79.02;98780.31;5049719;28;20029;-78
2022/12/05 05:14:03;;;;;;;40.88;18.67;;;;;;;1.99;79.53;98773.03;5049132;28;20028;-78
2022/12/05 05:16:30;;;;;;;35.58;17.02;;;;;;;1.96;79.69;98775.38;5049763;28;20029;-78
2022/12/05 05:18:56;;;;;;;42.50;18.80;;;;;;;1.95;79.46;98765.59;5048810;28;20025;-77
2022/12/05 05:21:33;;;;;;;40.13;18.90;;;;;;;1.89;79.19;98765.47;5049137;28;20420;-77
2022/12/05 05:23:59;;;;;;;37.85;17.85;;;;;;;1.83;78.67;98765.59;5049056;28;20033;-78
2022/12/05 05:26:26;;;;;;;40.25;19.55;;;;;;;1.77;78.66;98768.16;5052165;28;20044;-77
2022/12/05 05:28:52;;;;;;;37.05;18.00;;;;;;;1.74;79.02;98768.63;5052745;28;20473;-78
2022/12/05 05:31:19;;;;;;;39.03;19.13;;;;;;;1.74;78.98;98757.81;5052494;28;20036;-78
2022/12/05 05:33:48;;;;;;;36.25;17.50;;;;;;;1.74;78.95;98762.38;5052863;28;20104;-78
2022/12/05 05:36:13;;;;;;;36.13;17.27;;;;;;;1.74;78.97;98757.81;5052889;28;20481;-78
2022/12/05 05:38:42;;;;;;;37.95;18.33;;;;;;;1.75;79.86;98758.59;5052658;28;20044;-77
2022/12/05 05:41:17;;;;;;;39.53;17.83;;;;;;;1.72;79.69;98759.06;5051589;28;20036;-78
2022/12/05 05:43:44;;;;;;;43.45;19.48;;;;;;;1.68;79.25;98764.13;5052753;28;20044;-77
2022/12/05 05:46:10;;;;;;;45.80;19.98;;;;;;;1.64;79.86;98752.13;5052326;28;20060;-78
2022/12/05 05:48:35;;;;;;;39.55;19.30;;;;;;;1.60;79.41;98751.78;5051558;28;20056;-77
2022/12/05 05:51:02;;;;;;;44.35;18.48;;;;;;;1.58;79.36;98753.03;5052261;28;20033;-78
2022/12/05 05:53:28;;;;;;;43.75;18.83;;;;;;;1.58;79.80;98751.19;5052244;28;20052;-78
2022/12/05 05:55:53;;;;;;;41.50;18.65;;;;;;;1.59;79.17;98771.75;5052335;28;20029;-78
2022/12/05 05:58:19;;;;;;;40.78;18.25;;;;;;;1.65;79.24;98775.41;5052294;28;20044;-78
2022/12/05 06:00:44;;;;;;;37.42;16.80;;;;;;;1.68;80.03;98763.28;5052142;28;20029;-77
2022/12/05 06:03:10;;;;;;;48.03;20.80;;;;;;;1.69;79.61;98762.22;5050999;28;20029;-78
2022/12/05 06:05:35;;;;;;;43.80;19.92;;;;;;;1.69;79.30;98756.81;5052615;28;20025;-77
2022/12/05 06:08:01;;;;;;;46.42;20.15;;;;;;;1.66;80.02;98758.13;5052082;28;20021;-78
2022/12/05 06:10:28;;;;;;;43.28;20.63;;;;;;;1.66;79.13;98752.72;5052129;28;20032;-78
2022/12/05 06:12:54;;;;;;;42.78;19.85;;;;;;;1.66;79.85;98758.13;5050117;28;20108;-78
2022/12/05 06:15:19;;;;;;;41.08;18.85;;;;;;;1.68;79.27;98760.59;5051494;28;20163;-77
2022/12/05 06:17:45;;;;;;;43.67;18.73;;;;;;;1.68;79.80;98766.00;5052330;28;20108;-77
2022/12/05 06:20:10;;;;;;;40.50;18.60;;;;;;;1.69;79.72;98762.22;5051569;28;20021;-77
2022/12/05 06:22:35;;;;;;;43.80;19.80;;;;;;;1.66;79.50;98760.81;5052481;28;20393;-78
2022/12/05 06:25:01;;;;;;;40.50;18.90;;;;;;;1.65;79.73;98761.88;5051771;28;20045;-78
2022/12/05 06:27:29;;;;;;;45.40;20.08;;;;;;;1.61;79.81;98766.94;5051737;28;20028;-78
2022/12/05 06:29:55;;;;;;;48.47;20.88;;;;;;;1.59;79.59;98766.34;5051606;28;20110;-78
2022/12/05 06:32:20;;;;;;;46.38;20.75;;;;;;;1.61;79.81;98766.09;5050378;28;20087;-78
2022/12/05 06:34:45;;;;;;;43.17;20.38;;;;;;;1.61;79.25;98775.06;5051984;28;20035;-77
2022/12/05 06:37:11;;;;;;;43.50;19.73;;;;;;;1.61;79.77;98768.81;5050673;28;20029;-79
2022/12/05 06:39:37;;;;;;;42.40;18.90;;;;;;;1.61;79.59;98771.50;5051403;28;20031;-77
2022/12/05 06:42:03;;;;;;;49.45;24.58;;;;;;;1.63;79.93;98770.22;5051942;28;20025;-78
2022/12/05 06:44:28;;;;;;;47.55;22.92;;;;;;;1.66;79.63;98776.22;5051328;28;20055;-78
2022/12/05 06:46:54;;;;;;;47.92;23.33;;;;;;;1.70;80.00;98780.94;5050555;28;20025;-77
2022/12/05 06:49:21;;;;;;;59.90;28.10;;;;;;;1.72;79.40;98784.25;5051352;28;20036;-78
2022/12/05 06:51:46;;;;;;;66.30;32.92;;;;;;;1.78;79.98;98785.19;5051616;28;20028;-78
2022/12/05 06:54:13;;;;;;;65.32;38.92;;;;;;;1.77;79.60;98773.56;5051601;28;20502;-78
2022/12/05 06:56:38;;;;;;;57.20;32.60;;;;;;;1.79;79.52;98781.44;5050953;28;20045;-78
2022/12/05 06:59:03;;;;;;;56.15;32.42;;;;;;;1.79;79.36;98794.97;5051141;28;20036;-78
2022/12/05 07:01:39;;;;;;;64.43;35.45;;;;;;;1.84;79.28;98797.81;5050171;28;20119;-78
2022/12/05 07:04:06;;;;;;;66.97;34.55;;;;;;;1.86;80.07;98789.44;5051527;28;20461;-78
2022/12/05 07:06:33;;;;;;;60.67;32.42;;;;;;;1.89;80.00;98792.53;5051386;28;20033;-78
2022/12/05 07:08:58;;;;;;;57.70;30.45;;;;;;;1.92;80.13;98786.66;5050335;28;20036;-78
2022/12/05 07:11:24;;;;;;;50.25;25.58;;;;;;;1.97;79.29;98783.25;5050984;28;20362;-78
2022/12/05 07:13:49;;;;;;;44.55;21.92;;;;;;;1.99;79.51;98786.53;5051168;28;20044;-79
2022/12/05 07:16:15;;;;;;;44.00;20.73;;;;;;;2.02;79.65;98788.78;5050498;28;20100;-78
2022/12/05 07:18:40;;;;;;;45.80;20.77;;;;;;;2.06;79.92;98783.72;5049607;28;20417;-78
2022/12/05 07:21:09;;;;;;;43.67;21.25;;;;;;;2.05;79.29;98780.22;5046471;28;20477;-78
2022/12/05 07:23:35;;;;;;;49.50;23.10;;;;;;;2.06;79.49;98795.38;5053795;28;20516;-76
2022/12/05 07:26:08;;;;;;;46.50;23.38;;;;;;;2.08;79.31;98806.81;5044473;28;20064;-80
2022/12/05 07:28:34;;;;;;;45.63;23.85;;;;;;;2.15;79.98;98795.88;5046793;28;20024;-78
2022/12/05 07:31:01;;;;;;;48.95;24.70;;;;;;;2.19;79.91;98801.66;5051043;28;20099;-79
2022/12/05 07:33:27;;;;;;;45.13;22.65;;;;;;;2.22;79.77;98791.19;5050102;28;20067;-82
2022/12/05 07:36:08;;;;;;;48.15;22.27;;;;;;;2.20;79.87;98782.47;5048218;28;20083;-77
2022/12/05 07:38:34;;;;;;;48.55;23.08;;;;;;;2.20;79.31;98793.28;5048198;28;20059;-81
2022/12/05 07:41:03;;;;;;;55.83;24.73;;;;;;;2.25;79.51;98789.06;5047665;28;20033;-80
2022/12/05 07:43:29;;;;;;;83.80;37.47;;;;;;;2.31;79.94;98786.22;5047605;28;20440;-81
2022/12/05 07:46:00;;;;;;;75.90;33.17;;;;;;;2.37;79.15;98792.63;5050146;28;20060;-80
2022/12/05 07:48:26;;;;;;;74.30;31.52;;;;;;;2.43;80.17;98791.69;5045929;28;20637;-80
2022/12/05 07:50:51;;;;;;;63.30;26.60;;;;;;;2.48;80.22;98785.53;5048550;28;20021;-78
2022/12/05 07:53:16;;;;;;;55.97;24.75;;;;;;;2.51;79.31;98787.78;5050850;28;20825;-80
2022/12/05 07:55:42;;;;;;;53.65;24.48;;;;;;;2.52;79.39;98784.03;5048590;28;20177;-79
2022/12/05 07:58:07;;;;;;;47.28;21.73;;;;;;;2.58;80.18;98799.34;5047828;28;20113;-79
2022/12/05 08:00:32;;;;;;;46.25;21.27;;;;;;;2.62;79.82;98800.50;5048863;28;20021;-78
2022/12/05 08:02:58;;;;;;;46.45;20.90;;;;;;;2.65;79.31;98804.63;5048870;28;20035;-82
2022/12/05 08:05:23;;;;;;;49.85;22.52;;;;;;;2.63;79.53;98801.31;5048876;28;20040;-83
2022/12/05 08:07:48;;;;;;;48.60;22.45;;;;;;;2.60;79.85;98805.34;5046888;28;20036;-79
2022/12/05 08:10:14;;;;;;;44.88;20.33;;;;;;;2.62;79.19;98808.63;5047047;28;20048;-81
2022/12/05 08:12:39;;;;;;;43.17;19.92;;;;;;;2.66;80.14;98804.38;5047303;28;20107;-81
2022/12/05 08:15:06;;;;;;;47.58;23.60;;;;;;;2.69;79.38;98800.38;5046576;28;20033;-78
2022/12/05 08:17:32;;;;;;;48.63;23.25;;;;;;;2.71;80.11;98802.84;5049294;28;20033;-80
2022/12/05 08:19:57;;;;;;;47.47;21.73;;;;;;;2.67;79.73;98797.91;5048046;28;20025;-78
2022/12/05 08:22:23;;;;;;;46.92;22.00;;;;;;;2.67;79.41;98802.50;5048718;28;20397;-78
2022/12/05 08:24:51;;;;;;;46.53;21.50;;;;;;;2.66;79.74;98800.84;5049279;28;20045;-78
2022/12/05 08:27:16;;;;;;;45.55;22.20;;;;;;;2.68;80.01;98815.78;5048066;28;20025;-80
2022/12/05 08:29:42;;;;;;;48.35;23.15;;;;;;;2.67;79.67;98814.16;5048271;28;20044;-79
2022/12/05 08:32:07;;;;;;;48.97;24.00;;;;;;;2.67;79.67;98814.16;5048792;28;20083;-79
2022/12/05 08:34:32;;;;;;;44.10;21.60;;;;;;;2.70;79.53;98812.03;5048331;28;20032;-78
2022/12/05 08:36:58;;;;;;;44.22;20.20;;;;;;;2.68;79.87;98807.66;5047040;28;20107;-79
2022/12/05 08:39:23;;;;;;;40.95;20.58;;;;;;;2.67;79.56;98806.03;5047588;28;20041;-79
2022/12/05 08:41:49;;;;;;;40.17;20.00;;;;;;;2.70;79.99;98795.78;5047950;28;20065;-80
2022/12/05 08:44:15;;;;;;;43.28;21.73;;;;;;;2.76;79.25;98805.66;5048463;28;21935;-79
2022/12/05 08:46:42;;;;;;;41.20;20.75;;;;;;;2.81;79.75;98817.47;5047620;28;20086;-79
2022/12/05 08:49:09;;;;;;;41.22;20.63;;;;;;;2.85;80.14;98804.25;5048056;28;20091;-79
2022/12/05 08:51:35;;;;;;;36.65;19.88;;;;;;;2.89;79.92;98807.31;5046474;28;20029;-82
2022/12/05 08:54:04;;;;;;;41.85;19.48;;;;;;;2.96;79.39;98808.84;5049375;28;20425;-79
2022/12/05 08:56:31;;;;;;;43.75;21.75;;;;;;;3.05;79.83;98816.63;5047133;28;20489;-80
2022/12/05 08:58:57;;;;;;;40.10;19.92;;;;;;;3.13;79.99;98808.09;5048095;28;20394;-80
2022/12/05 09:01:24;;;;;;;36.85;19.52;;;;;;;3.18;79.89;98819.03;5054212;28;20074;-83
2022/12/05 09:03:50;;;;;;;41.60;20.67;;;;;;;3.21;80.03;98817.75;5056682;28;20061;-79
2022/12/05 09:06:17;;;;;;;41.95;20.33;;;;;;;3.28;80.22;98815.72;5055944;28;20060;-83
2022/12/05 09:08:43;;;;;;;37.58;18.95;;;;;;;3.31;79.75;98809.81;5051150;28;20499;-79
2022/12/05 09:11:10;;;;;;;38.25;18.58;;;;;;;3.35;79.22;98815.59;5052802;28;20086;-80
2022/12/05 09:13:36;;;;;;;42.75;19.95;;;;;;;3.35;79.70;98812.88;5051702;28;20582;-80
2022/12/05 09:16:10;;;;;;;38.95;20.00;;;;;;;3.36;79.13;98815.34;5052927;28;20021;-82
2022/12/05 09:18:35;;;;;;;41.28;19.23;;;;;;;3.39;78.99;98814.88;5050102;28;20021;-82
2022/12/05 09:21:12;;;;;;;40.97;19.55;;;;;;;3.40;79.82;98821.94;5051758;28;20036;-80
2022/12/05 09:23:38;;;;;;;42.28;20.85;;;;;;;3.43;79.68;98823.38;5049354;28;20025;-83
2022/12/05 09:26:05;;;;;;;44.00;21.05;;;;;;;3.45;79.08;98815.81;5052568;28;20029;-83
2022/12/05 09:28:32;;;;;;;39.45;19.40;;;;;;;3.46;79.54;98809.34;5051587;28;20134;-79
2022/12/05 09:31:00;;;;;;;39.50;19.98;;;;;;;3.48;79.12;98823.44;5052750;28;20028;-79
2022/12/05 09:33:27;;;;;;;43.13;19.70;;;;;;;3.50;79.09;98815.09;5051122;28;20040;-78
2022/12/05 09:35:54;;;;;;;42.60;20.25;;;;;;;3.52;79.10;98808.34;5051654;28;20013;-78
2022/12/05 09:38:20;;;;;;;41.38;19.15;;;;;;;3.56;79.60;98804.09;5050231;28;20028;-77
2022/12/05 09:40:52;;;;;;;41.83;19.73;;;;;;;3.60;79.04;98798.19;5055323;28;20598;-78
2022/12/05 09:43:26;;;;;;;43.33;21.02;;;;;;;3.67;79.74;98804.28;5050016;28;20120;-80
2022/12/05 09:46:08;;;;;;;49.55;23.77;;;;;;;3.72;79.38;98794.34;5054465;28;20052;-81
2022/12/05 09:48:34;;;;;;;45.90;23.58;;;;;;;3.80;79.06;98798.56;5050563;28;20802;-78
2022/12/05 09:51:02;;;;;;;49.70;24.88;;;;;;;3.85;79.29;98795.97;5052681;28;20037;-79
2022/12/05 09:53:32;;;;;;;152.38;59.88;;;;;;;3.86;79.57;98786.75;5052797;28;20045;-80
2022/12/05 09:56:05;;;;;;;191.38;51.58;;;;;;;3.88;79.17;98787.31;5052388;28;20049;-78
2022/12/05 09:58:49;;;;;;;331.48;84.63;;;;;;;3.90;79.04;98791.66;5047965;28;20029;-80
2022/12/05 10:01:33;;;;;;;404.58;95.80;;;;;;;3.89;79.33;98788.13;5052101;28;20040;-82
2022/12/05 10:04:13;;;;;;;335.75;96.93;;;;;;;3.89;79.36;98790.84;5050301;28;20045;-78
2022/12/05 10:06:45;;;;;;;424.35;119.10;;;;;;;3.91;79.49;98790.59;5055027;28;20036;-79
2022/12/05 10:09:16;;;;;;;280.70;93.07;;;;;;;3.88;79.39;98784.59;5050764;28;20067;-83
2022/12/05 10:12:14;;;;;;;205.30;79.10;;;;;;;3.85;79.30;98776.97;5052317;28;20044;-81
2022/12/05 10:14:45;;;;;;;242.98;84.88;;;;;;;3.85;79.27;98776.97;5048551;28;20045;-84
2022/12/05 10:17:39;;;;;;;212.55;69.63;;;;;;;3.88;78.77;98789.22;5052724;28;20087;-82
2022/12/05 10:20:20;;;;;;;105.95;38.75;;;;;;;3.94;78.89;98779.25;5049636;28;20392;-81
2022/12/05 10:23:02;;;;;;;76.20;32.28;;;;;;;3.98;78.88;98792.09;5051179;28;20029;-84
2022/12/05 10:25:31;;;;;;;112.53;43.28;;;;;;;3.98;79.00;98781.25;5050887;28;20537;-82
2022/12/05 10:28:04;;;;;;;108.60;44.78;;;;;;;3.96;78.51;98786.09;5051260;28;20040;-84
2022/12/05 10:30:34;;;;;;;85.68;37.30;;;;;;;3.96;78.60;98796.94;5050767;28;20111;-86
2022/12/05 10:33:11;;;;;;;;;;;;;;;3.97;79.10;98782.31;5051784;28;20579;-80
2022/12/05 10:35:39;;;;;;;64.95;28.52;;;;;;;3.95;78.76;98786.31;5050528;28;19912;-84
2022/12/05 10:38:25;;;;;;;68.18;30.05;;;;;;;3.94;78.98;98782.81;5052784;28;20025;-80
2022/12/05 10:40:56;;;;;;;64.25;28.08;;;;;;;3.94;78.75;98780.09;5053200;28;20040;-82
2022/12/05 10:43:27;;;;;;;58.25;27.73;;;;;;;3.97;78.58;98784.19;5050937;28;20111;-81
2022/12/05 10:45:53;;;;;;;65.43;29.80;;;;;;;3.96;79.11;98769.81;5050517;28;20021;-80
2022/12/05 10:48:20;;;;;;;65.85;29.42;;;;;;;3.96;78.64;98782.53;5050543;28;20013;-82
2022/12/05 10:50:51;;;;;;;69.97;29.27;;;;;;;3.94;78.91;98771.94;5048803;28;20055;-83
2022/12/05 10:53:23;;;;;;;59.30;27.08;;;;;;;3.94;78.44;98776.53;5049252;28;20106;-82
2022/12/05 10:55:52;;;;;;;65.50;28.63;;;;;;;3.94;78.80;98774.66;5049911;28;20025;-82
2022/12/05 10:58:25;;;;;;;64.68;29.50;;;;;;;3.92;78.81;98776.81;5049107;28;20032;-82
2022/12/05 11:00:55;;;;;;;64.15;28.10;;;;;;;3.91;78.91;98777.88;5050796;28;20033;-84
2022/12/05 11:03:23;;;;;;;58.08;26.98;;;;;;;3.94;78.98;98771.94;5050536;28;20393;-80
2022/12/05 11:05:50;;;;;;;60.97;27.00;;;;;;;3.93;78.96;98781.16;5053903;28;20025;-84
2022/12/05 11:08:24;;;;;;;58.30;27.77;;;;;;;3.95;79.14;98772.75;5050039;28;20071;-82
2022/12/05 11:11:01;;;;;;;60.72;29.50;;;;;;;3.99;78.77;98768.50;5051365;28;20029;-84
2022/12/05 11:13:26;;;;;;;60.53;27.55;;;;;;;4.05;78.90;98764.00;5050662;28;20029;-85
2022/12/05 11:15:51;;;;;;;57.45;27.95;;;;;;;4.09;79.14;98775.97;5049641;28;20374;-86
2022/12/05 11:18:28;;;;;;;54.50;26.35;;;;;;;4.09;79.29;98767.81;5050918;28;20025;-84
2022/12/05 11:20:54;;;;;;;54.83;25.85;;;;;;;4.08;79.02;98761.59;5051753;28;20024;-84
2022/12/05 11:23:26;;;;;;;66.88;30.92;;;;;;;4.11;78.39;98762.97;5050594;28;20070;-81
2022/12/05 11:25:53;;;;;;;71.90;32.83;;;;;;;4.12;78.68;98765.47;5053196;28;20029;-83
2022/12/05 11:28:18;;;;;;;62.55;33.28;;;;;;;4.10;78.43;98764.88;5048760;28;20608;-85
2022/12/05 11:31:11;;;;;;;58.20;31.92;;;;;;;4.10;78.99;98775.75;5049278;28;20029;-87
2022/12/05 11:33:37;;;;;;;64.75;34.10;;;;;;;4.12;78.13;98770.91;5051099;28;20021;-82
2022/12/05 11:36:17;;;;;;;67.07;32.42;;;;;;;4.14;78.99;98771.47;5049803;28;20604;-82
2022/12/05 11:38:43;;;;;;;57.78;28.20;;;;;;;4.21;79.08;98760.44;5046620;28;20029;-82